Time;durP1;ratioP1;P1;durP2;ratioP2;P2;SDS_P1;SDS_P2;PMS_P1;PMS_P2;Temp;Humidity;BMP_temperature;BMP_pressure;BME280_temperature;BME280_humidity;BME280_pressure;Samples;Min_cycle;Max_cycle;Signal;HPM_P1;HPM_P2
2022/09/27 00:00:43;;;;;;;1.07;0.67;;;;;;;13.24;90.03;98714.22;4980214;28;20210;-64
2022/09/27 00:03:11;;;;;;;1.37;0.63;;;;;;;13.24;89.53;98716.88;4981532;28;20250;-67
2022/09/27 00:05:40;;;;;;;1.73;0.73;;;;;;;13.23;89.80;98716.06;4981292;28;20228;-65
2022/09/27 00:08:08;;;;;;;0.97;0.60;;;;;;;13.17;90.56;98725.69;4974060;28;20256;-65
2022/09/27 00:10:35;;;;;;;1.57;0.70;;;;;;;13.19;90.62;98723.63;4979428;28;20211;-64
2022/09/27 00:13:03;;;;;;;1.90;0.70;;;;;;;13.27;90.25;98719.97;4981186;28;20210;-64
2022/09/27 00:15:32;;;;;;;1.47;0.80;;;;;;;13.37;89.68;98727.53;4978506;28;20239;-64
2022/09/27 00:18:00;;;;;;;2.57;0.70;;;;;;;13.46;89.19;98728.91;4984227;28;20829;-64
2022/09/27 00:20:28;;;;;;;5.60;1.23;;;;;;;13.46;88.53;98718.25;4981166;28;20206;-64
2022/09/27 00:22:55;;;;;;;1.47;0.70;;;;;;;13.47;88.61;98718.03;4984177;28;20282;-64
2022/09/27 00:25:23;;;;;;;0.90;0.40;;;;;;;13.50;88.17;98714.97;4981110;28;20237;-64
2022/09/27 00:27:51;;;;;;;2.57;0.50;;;;;;;13.57;87.29;98712.28;4980842;28;20770;-64
2022/09/27 00:30:19;;;;;;;0.83;0.50;;;;;;;13.56;87.07;98710.66;4978715;28;21273;-64
2022/09/27 00:32:48;;;;;;;3.07;1.00;;;;;;;13.56;87.15;98713.31;4980542;28;20268;-64
2022/09/27 00:35:15;;;;;;;1.20;0.60;;;;;;;13.64;86.75;98707.75;4982456;28;20651;-64
2022/09/27 00:37:43;;;;;;;2.00;0.50;;;;;;;13.69;85.96;98707.97;4984442;28;20220;-64
2022/09/27 00:40:11;;;;;;;1.93;0.50;;;;;;;13.63;86.61;98708.81;4982416;28;20281;-64
2022/09/27 00:42:45;;;;;;;1.73;0.50;;;;;;;13.57;87.12;98710.44;4983188;28;20607;-64
2022/09/27 00:45:16;;;;;;;3.23;0.80;;;;;;;13.57;87.23;98707.78;4984189;28;20231;-64
2022/09/27 00:47:54;;;;;;;0.83;0.47;;;;;;;13.54;88.14;98710.84;4982527;28;20220;-64
2022/09/27 00:50:26;;;;;;;0.50;0.30;;;;;;;13.53;88.23;98716.41;4984266;28;20236;-64
2022/09/27 00:53:03;;;;;;;1.70;0.70;;;;;;;13.52;88.26;98706.78;4982317;28;20685;-65
2022/09/27 00:55:36;;;;;;;1.97;0.47;;;;;;;13.46;88.68;98705.75;4985527;28;20652;-65
2022/09/27 00:58:05;;;;;;;1.83;0.70;;;;;;;13.47;88.87;98703.91;4982344;28;20218;-65
2022/09/27 01:00:33;;;;;;;1.37;0.50;;;;;;;13.46;88.90;98702.28;4982404;28;20260;-65
2022/09/27 01:03:10;;;;;;;0.77;0.40;;;;;;;13.39;89.35;98706.81;4990211;28;20261;-65
2022/09/27 01:05:38;;;;;;;1.27;0.60;;;;;;;13.34;89.71;98710.09;4985210;28;20225;-66
2022/09/27 01:08:05;;;;;;;1.03;0.57;;;;;;;13.29;90.01;98707.22;4982487;28;22351;-65
2022/09/27 01:10:46;;;;;;;2.47;0.60;;;;;;;13.39;89.88;98712.94;4982435;28;20208;-66
2022/09/27 01:13:21;;;;;;;3.40;0.80;;;;;;;13.48;89.00;98710.88;4975668;28;20276;-66
2022/09/27 01:15:59;;;;;;;0.70;0.50;;;;;;;13.59;87.75;98707.56;4982778;28;20652;-65
2022/09/27 01:18:35;;;;;;;2.00;0.60;;;;;;;13.69;86.80;98713.28;4984424;28;20210;-66
2022/09/27 01:21:33;;;;;;;4.10;0.60;;;;;;;13.69;85.20;98709.81;4983698;28;20222;-66
2022/09/27 01:24:22;;;;;;;2.20;0.97;;;;;;;13.70;84.83;98700.78;4985013;28;20206;-66
2022/09/27 01:27:18;;;;;;;3.30;0.73;;;;;;;13.74;84.25;98710.78;4980197;28;20261;-65
2022/09/27 01:30:01;;;;;;;3.87;0.90;;;;;;;13.77;83.87;98710.38;4983253;28;20215;-65
2022/09/27 01:32:37;;;;;;;2.90;0.50;;;;;;;13.78;83.82;98709.34;4985057;28;20288;-66
2022/09/27 01:35:10;;;;;;;2.40;0.57;;;;;;;13.83;83.60;98701.53;4983003;28;20592;-66
2022/09/27 01:37:45;;;;;;;3.30;0.80;;;;;;;13.92;82.78;98702.13;4985711;28;20199;-66
2022/09/27 01:40:23;;;;;;;3.77;0.87;;;;;;;13.85;82.33;98702.16;4980809;28;20210;-65
2022/09/27 01:42:57;;;;;;;2.30;0.63;;;;;;;13.82;83.12;98702.56;4981580;28;20241;-66
2022/09/27 01:45:30;;;;;;;4.83;1.00;;;;;;;13.85;82.88;98699.47;4986069;28;20226;-66
2022/09/27 01:48:03;;;;;;;2.77;0.93;;;;;;;13.78;83.25;98701.38;4984024;28;20674;-65
2022/09/27 01:50:35;;;;;;;2.97;1.13;;;;;;;13.81;83.12;98695.59;4983474;28;20249;-66
2022/09/27 01:53:08;;;;;;;4.10;1.10;;;;;;;13.88;82.75;98701.75;4983250;28;20591;-65
2022/09/27 01:55:38;;;;;;;3.53;1.10;;;;;;;13.90;82.45;98698.84;4983236;28;20214;-65
2022/09/27 01:58:13;;;;;;;5.13;1.73;;;;;;;13.89;82.79;98697.22;4979655;28;20672;-66
2022/09/27 02:00:45;;;;;;;2.73;1.20;;;;;;;13.91;82.28;98697.81;4979546;28;20217;-66
2022/09/27 02:03:17;;;;;;;3.73;1.23;;;;;;;13.90;82.63;98710.31;4984001;28;20223;-66
2022/09/27 02:05:50;;;;;;;5.23;1.97;;;;;;;13.92;82.64;98702.13;4984331;28;20225;-64
2022/09/27 02:08:22;;;;;;;4.87;1.83;;;;;;;13.90;83.49;98696.16;4979599;28;20220;-65
2022/09/27 02:10:55;;;;;;;3.53;1.33;;;;;;;13.90;83.25;98694.31;4982093;28;20210;-65
2022/09/27 02:13:27;;;;;;;7.33;1.30;;;;;;;13.86;83.26;98692.31;4979428;28;20214;-66
2022/09/27 02:16:03;;;;;;;2.90;1.50;;;;;;;13.85;83.12;98699.47;4979551;28;20213;-65
2022/09/27 02:18:37;;;;;;;3.87;1.17;;;;;;;13.87;83.41;98699.28;4981334;28;20208;-65
2022/09/27 02:21:10;;;;;;;5.67;1.50;;;;;;;13.86;83.33;98701.13;4982757;28;20216;-65
2022/09/27 02:23:43;;;;;;;8.10;1.67;;;;;;;13.84;83.10;98695.19;4980396;28;20212;-65
2022/09/27 02:26:16;;;;;;;3.47;1.20;;;;;;;13.83;82.62;98703.38;4982597;28;20235;-65
2022/09/27 02:28:50;;;;;;;2.60;1.00;;;;;;;13.85;81.88;98701.34;4980743;28;20207;-64
2022/09/27 02:31:18;;;;;;;5.70;1.37;;;;;;;13.84;81.91;98703.16;4981257;28;20235;-65
2022/09/27 02:33:50;;;;;;;3.97;0.87;;;;;;;13.87;81.50;98710.75;4983235;28;20238;-64
2022/09/27 02:36:18;;;;;;;4.77;1.00;;;;;;;13.88;80.49;98712.38;4980429;28;20239;-64
2022/09/27 02:38:46;;;;;;;3.17;0.90;;;;;;;13.96;80.09;98713.19;4980615;28;20218;-65
2022/09/27 02:41:15;;;;;;;3.83;1.20;;;;;;;13.92;79.84;98713.59;4984086;28;20220;-65
2022/09/27 02:43:45;;;;;;;2.10;0.70;;;;;;;13.90;79.13;98726.28;4982276;28;20219;-64
2022/09/27 02:46:33;;;;;;;3.37;0.70;;;;;;;13.82;79.56;98731.03;4984096;28;20281;-66
2022/09/27 02:49:18;;;;;;;2.53;0.90;;;;;;;13.78;79.49;98730.66;4985350;28;20212;-66
2022/09/27 02:51:57;;;;;;;3.87;1.10;;;;;;;13.78;80.14;98733.34;4985023;28;20607;-65
2022/09/27 02:54:34;;;;;;;2.40;0.97;;;;;;;13.81;79.93;98732.88;4987121;28;20217;-65
2022/09/27 02:57:11;;;;;;;2.77;0.70;;;;;;;13.81;79.52;98738.22;4982646;28;20206;-65
2022/09/27 02:59:50;;;;;;;5.73;0.90;;;;;;;13.84;79.70;98739.66;4985160;28;20755;-65
2022/09/27 03:02:23;;;;;;;3.37;1.00;;;;;;;13.84;80.16;98737.81;4984073;28;20216;-66
2022/09/27 03:04:59;;;;;;;3.43;0.90;;;;;;;13.84;80.43;98748.47;4985735;28;20215;-65
2022/09/27 03:07:27;;;;;;;4.27;0.90;;;;;;;13.88;79.80;98747.03;4977229;28;20218;-66
2022/09/27 03:09:56;;;;;;;3.37;0.90;;;;;;;13.90;80.13;98755.59;4979429;28;20214;-66
2022/09/27 03:12:25;;;;;;;2.27;0.70;;;;;;;13.82;79.69;98750.50;4981689;28;20728;-66
2022/09/27 03:14:55;;;;;;;2.27;0.80;;;;;;;13.77;79.89;98758.31;4979688;28;20215;-66
2022/09/27 03:17:22;;;;;;;2.57;0.70;;;;;;;13.76;79.82;98761.19;4980597;28;20210;-66
2022/09/27 03:19:50;;;;;;;2.60;0.80;;;;;;;13.77;79.05;98763.66;4984070;28;20931;-65
2022/09/27 03:22:19;;;;;;;3.43;0.60;;;;;;;13.78;78.17;98767.97;4978735;28;20282;-65
2022/09/27 03:24:48;;;;;;;2.10;0.50;;;;;;;13.77;78.38;98771.66;4981575;28;21813;-65
2022/09/27 03:27:15;;;;;;;1.60;0.43;;;;;;;13.78;77.82;98778.63;4976503;28;20244;-65
2022/09/27 03:29:43;;;;;;;1.17;0.50;;;;;;;13.73;77.38;98780.25;4979597;28;20213;-65
2022/09/27 03:32:11;;;;;;;1.50;0.40;;;;;;;13.71;77.17;98783.16;4982120;28;20250;-65
2022/09/27 03:34:39;;;;;;;2.23;0.50;;;;;;;13.67;75.57;98779.25;4977682;28;20213;-65
2022/09/27 03:37:07;;;;;;;1.83;0.63;;;;;;;13.65;75.26;98778.63;4981152;28;20322;-65
2022/09/27 03:39:36;;;;;;;2.23;0.60;;;;;;;13.61;74.78;98774.78;4983068;28;20220;-65
2022/09/27 03:42:04;;;;;;;0.87;0.50;;;;;;;13.58;74.72;98777.84;4981186;28;20627;-65
2022/09/27 03:44:32;;;;;;;4.87;0.93;;;;;;;13.59;74.28;98778.66;4979606;28;20580;-65
2022/09/27 03:47:00;;;;;;;1.63;0.50;;;;;;;13.57;74.28;98789.50;4982300;28;20232;-65
2022/09/27 03:49:28;;;;;;;2.63;0.60;;;;;;;13.56;73.97;98782.53;4982957;28;20223;-65
2022/09/27 03:51:55;;;;;;;1.90;0.60;;;;;;;13.59;73.56;98791.97;4980375;28;20585;-64
2022/09/27 03:54:23;;;;;;;1.43;0.50;;;;;;;13.63;73.45;98794.03;4979850;28;20293;-65
2022/09/27 03:56:53;;;;;;;2.70;0.57;;;;;;;13.66;72.72;98793.59;4981073;28;20691;-66
2022/09/27 03:59:20;;;;;;;2.87;0.80;;;;;;;13.66;72.80;98798.91;4977267;28;20214;-65
2022/09/27 04:01:48;;;;;;;2.03;0.47;;;;;;;13.67;72.54;98797.06;4980485;28;20263;-66
2022/09/27 04:04:16;;;;;;;2.70;0.70;;;;;;;13.67;72.38;98799.75;4981029;28;20627;-67
2022/09/27 04:06:44;;;;;;;1.27;0.37;;;;;;;13.69;72.35;98808.34;4979804;28;20221;-66
2022/09/27 04:09:11;;;;;;;1.33;0.30;;;;;;;13.64;72.26;98808.94;4981583;28;20217;-65
2022/09/27 04:11:39;;;;;;;0.73;0.40;;;;;;;13.62;72.17;98816.34;4979600;28;20219;-64
2022/09/27 04:14:11;;;;;;;1.10;0.53;;;;;;;13.60;71.78;98814.91;4981808;28;20211;-65
2022/09/27 04:16:40;;;;;;;1.63;0.50;;;;;;;13.68;71.58;98810.19;4979129;28;20217;-64
2022/09/27 04:19:08;;;;;;;2.23;0.40;;;;;;;13.72;70.98;98811.41;4979981;28;20283;-65
2022/09/27 04:21:36;;;;;;;0.77;0.40;;;;;;;13.69;71.10;98816.34;4981538;28;20206;-66
2022/09/27 04:24:05;;;;;;;1.00;0.40;;;;;;;13.63;71.13;98807.34;4982724;28;20259;-66
2022/09/27 04:26:33;;;;;;;1.23;0.40;;;;;;;13.66;71.65;98812.22;4979456;28;20286;-65
2022/09/27 04:29:01;;;;;;;1.50;0.50;;;;;;;13.71;71.30;98811.63;4981184;28;20946;-65
2022/09/27 04:31:30;;;;;;;2.50;0.60;;;;;;;13.61;71.30;98821.88;4978431;28;20248;-65
2022/09/27 04:33:58;;;;;;;1.77;0.53;;;;;;;13.61;71.61;98825.38;4979521;28;20701;-66
2022/09/27 04:36:25;;;;;;;3.80;0.60;;;;;;;13.64;71.99;98832.09;4982719;28;20217;-65
2022/09/27 04:38:53;;;;;;;1.37;0.50;;;;;;;13.63;72.29;98836.63;4984510;28;20213;-66
2022/09/27 04:41:22;;;;;;;1.80;0.40;;;;;;;13.62;72.91;98827.00;4982793;28;20574;-66
2022/09/27 04:43:50;;;;;;;1.07;0.40;;;;;;;13.60;73.14;98836.22;4984377;28;20217;-66
2022/09/27 04:46:24;;;;;;;1.07;0.47;;;;;;;13.57;74.47;98824.94;4980479;28;20243;-65
2022/09/27 04:48:54;;;;;;;3.30;0.60;;;;;;;13.56;74.91;98830.47;4981174;28;20694;-66
2022/09/27 04:51:22;;;;;;;1.10;0.37;;;;;;;13.59;73.46;98840.72;4986957;28;20210;-66
2022/09/27 04:53:49;;;;;;;3.10;0.70;;;;;;;13.60;73.39;98842.38;4983433;28;20215;-65
2022/09/27 04:56:17;;;;;;;1.43;0.50;;;;;;;13.63;72.98;98841.97;4982788;28;20213;-65
2022/09/27 04:58:45;;;;;;;2.77;0.60;;;;;;;13.73;72.27;98842.34;4982291;28;20286;-66
2022/09/27 05:01:12;;;;;;;2.27;0.40;;;;;;;13.71;72.12;98830.28;4983119;28;20289;-65
2022/09/27 05:03:40;;;;;;;1.33;0.60;;;;;;;13.68;71.97;98836.81;4978050;28;20211;-65
2022/09/27 05:06:10;;;;;;;2.30;0.67;;;;;;;13.61;73.00;98840.53;4981697;28;20241;-65
2022/09/27 05:08:37;;;;;;;1.13;0.43;;;;;;;13.53;72.60;98839.72;4982067;28;20235;-66
2022/09/27 05:11:05;;;;;;;1.93;0.30;;;;;;;13.49;72.38;98845.66;4984252;28;20567;-66
2022/09/27 05:13:33;;;;;;;1.43;0.40;;;;;;;13.51;72.02;98851.59;4985525;28;20215;-68
2022/09/27 05:16:03;;;;;;;1.20;0.40;;;;;;;13.52;72.09;98845.25;4986337;28;20212;-66
2022/09/27 05:18:32;;;;;;;0.97;0.33;;;;;;;13.58;71.80;98855.06;4981612;28;20658;-65
2022/09/27 05:20:59;;;;;;;2.10;0.60;;;;;;;13.61;71.52;98860.00;4983004;28;20235;-66
2022/09/27 05:23:29;;;;;;;2.07;0.57;;;;;;;13.53;71.49;98865.53;4982268;28;22163;-66
2022/09/27 05:25:56;;;;;;;1.23;0.53;;;;;;;13.54;71.62;98864.50;4985282;28;20225;-65
2022/09/27 05:28:24;;;;;;;0.93;0.50;;;;;;;13.60;71.47;98871.66;4981509;28;20541;-66
2022/09/27 05:30:52;;;;;;;1.23;0.40;;;;;;;13.67;70.87;98874.31;4979302;28;20210;-66
2022/09/27 05:33:20;;;;;;;2.43;0.50;;;;;;;13.62;70.73;98877.59;4981799;28;20256;-66
2022/09/27 05:35:52;;;;;;;1.97;0.47;;;;;;;13.62;70.42;98880.28;4982023;28;20222;-65
2022/09/27 05:38:20;;;;;;;2.97;1.00;;;;;;;13.59;70.84;98886.00;4985798;28;20212;-65
2022/09/27 05:40:50;;;;;;;1.07;0.30;;;;;;;13.62;70.42;98890.94;4980004;28;20641;-65
2022/09/27 05:43:18;;;;;;;2.07;0.40;;;;;;;13.61;69.94;98891.94;4980769;28;20213;-65
2022/09/27 05:45:47;;;;;;;2.10;0.60;;;;;;;13.64;69.50;98901.34;4981257;28;20208;-66
2022/09/27 05:48:14;;;;;;;1.27;0.40;;;;;;;13.72;69.34;98898.50;4981804;28;20239;-65
2022/09/27 05:50:42;;;;;;;1.77;0.60;;;;;;;13.74;69.53;98896.44;4983575;28;20224;-66
2022/09/27 05:53:12;;;;;;;1.77;0.40;;;;;;;13.73;69.45;98910.75;4984538;28;20217;-65
2022/09/27 05:55:39;;;;;;;0.73;0.40;;;;;;;13.72;69.51;98911.81;4981547;28;20214;-66
2022/09/27 05:58:11;;;;;;;1.33;0.50;;;;;;;13.76;69.07;98911.19;4981208;28;20261;-66
2022/09/27 06:00:39;;;;;;;1.27;0.50;;;;;;;13.76;69.07;98918.34;4979421;28;20209;-64
2022/09/27 06:03:07;;;;;;;3.07;0.70;;;;;;;13.69;69.01;98923.69;4984504;28;20202;-65
2022/09/27 06:05:36;;;;;;;2.00;0.50;;;;;;;13.63;68.41;98927.19;4984003;28;20234;-65
2022/09/27 06:08:06;;;;;;;1.97;0.57;;;;;;;13.56;68.27;98926.34;4983308;28;20213;-66
2022/09/27 06:10:35;;;;;;;2.37;0.40;;;;;;;13.58;68.63;98929.63;4982625;28;20204;-64
2022/09/27 06:13:04;;;;;;;1.10;0.40;;;;;;;13.63;68.48;98927.19;4977114;28;20214;-62
2022/09/27 06:15:34;;;;;;;1.40;0.50;;;;;;;13.68;68.56;98934.56;4985461;28;20660;-63
2022/09/27 06:18:05;;;;;;;3.20;0.70;;;;;;;13.70;68.56;98930.66;4982087;28;20571;-63
2022/09/27 06:20:33;;;;;;;1.03;0.40;;;;;;;13.77;68.25;98928.81;4982883;28;20221;-63
2022/09/27 06:23:06;;;;;;;1.03;0.50;;;;;;;13.78;68.46;98925.13;4974200;28;20283;-63
2022/09/27 06:25:34;;;;;;;3.43;0.70;;;;;;;13.73;69.31;98927.56;4979752;28;20264;-63
2022/09/27 06:28:02;;;;;;;1.40;0.50;;;;;;;13.78;69.51;98934.97;4980379;28;20845;-62
2022/09/27 06:30:30;;;;;;;1.20;0.40;;;;;;;13.75;68.54;98938.84;4969249;28;20292;-63
2022/09/27 06:33:00;;;;;;;2.50;0.40;;;;;;;13.75;68.43;98940.69;4968378;28;20238;-62
2022/09/27 06:35:30;;;;;;;1.57;0.60;;;;;;;13.81;68.98;98948.66;4984562;28;20217;-63
2022/09/27 06:37:58;;;;;;;4.63;0.70;;;;;;;13.85;69.04;98946.44;4982535;28;20635;-62
2022/09/27 06:40:25;;;;;;;1.00;0.40;;;;;;;13.88;68.58;98948.69;4981044;28;20643;-63
2022/09/27 06:42:54;;;;;;;1.07;0.40;;;;;;;13.98;68.08;98961.59;4984731;28;20689;-63
2022/09/27 06:45:22;;;;;;;1.87;0.60;;;;;;;14.03;67.79;98949.28;4985618;28;20264;-64
2022/09/27 06:47:50;;;;;;;1.47;0.50;;;;;;;14.06;67.73;98961.38;4985451;28;20232;-63
2022/09/27 06:50:19;;;;;;;2.57;0.70;;;;;;;14.06;67.44;98954.22;4981126;28;20232;-64
2022/09/27 06:52:48;;;;;;;4.23;0.67;;;;;;;14.04;67.07;98960.75;4978031;28;20221;-63
2022/09/27 06:55:16;;;;;;;4.83;0.60;;;;;;;14.00;66.87;98964.84;4976152;28;20212;-63
2022/09/27 07:00:29;;;;;;;1.73;0.43;;;;;;;14.05;67.21;98970.41;4982178;28;20205;-62
2022/09/27 07:02:59;;;;;;;0.77;0.30;;;;;;;14.04;67.09;98972.25;4977213;28;20221;-63
2022/09/27 07:05:29;;;;;;;3.07;0.53;;;;;;;14.09;66.81;98975.09;4981070;28;20746;-62
2022/09/27 07:07:58;;;;;;;1.27;0.53;;;;;;;14.15;66.78;98976.13;4981708;28;20217;-62
2022/09/27 07:10:28;;;;;;;2.63;0.97;;;;;;;14.23;65.79;98984.75;4978099;28;20244;-64
2022/09/27 07:12:57;;;;;;;1.43;0.40;;;;;;;14.31;64.35;98994.38;4980187;28;20209;-62
2022/09/27 07:15:25;;;;;;;2.20;0.30;;;;;;;14.43;63.83;98997.22;4978496;28;20214;-63
2022/09/27 07:17:56;;;;;;;0.93;0.40;;;;;;;14.46;63.38;99000.31;4980983;28;20214;-62
2022/09/27 07:20:24;;;;;;;0.60;0.30;;;;;;;14.49;63.36;98997.22;4980634;28;20214;-63
2022/09/27 07:22:53;;;;;;;1.20;0.37;;;;;;;14.56;63.33;99003.38;4980772;28;20311;-62
2022/09/27 07:25:21;;;;;;;2.50;0.30;;;;;;;14.60;62.09;99009.91;4980059;28;20214;-63
2022/09/27 07:27:51;;;;;;;0.87;0.20;;;;;;;14.63;61.19;99003.34;4981567;28;22138;-63
2022/09/27 07:30:19;;;;;;;1.23;0.23;;;;;;;14.65;61.17;99015.44;4978938;28;20699;-63
2022/09/27 07:32:49;;;;;;;1.50;0.30;;;;;;;14.66;61.08;99013.59;4982678;28;20733;-63
2022/09/27 07:35:17;;;;;;;1.80;0.57;;;;;;;14.63;61.32;99019.34;4981929;28;20237;-66
2022/09/27 07:37:44;;;;;;;0.40;0.10;;;;;;;14.62;62.29;99023.84;4981012;28;20268;-65
2022/09/27 07:40:13;;;;;;;1.50;0.40;;;;;;;14.56;62.71;99018.53;4982802;28;20233;-65
2022/09/27 07:42:41;;;;;;;0.77;0.30;;;;;;;14.51;63.40;99019.16;4982200;28;20738;-65
2022/09/27 07:45:10;;;;;;;0.67;0.30;;;;;;;14.51;63.45;99026.38;4983263;28;20214;-65
2022/09/27 07:47:41;;;;;;;4.07;0.30;;;;;;;14.47;64.30;99036.63;4986423;28;20643;-65
2022/09/27 07:50:10;;;;;;;1.20;0.50;;;;;;;14.45;64.28;99038.66;4981723;28;20300;-64
2022/09/27 07:52:41;;;;;;;1.87;0.40;;;;;;;14.49;63.81;99037.25;4982598;28;20206;-64
2022/09/27 07:55:10;;;;;;;2.73;0.50;;;;;;;14.43;64.61;99039.88;4981727;28;20214;-65
2022/09/27 07:57:40;;;;;;;1.33;0.40;;;;;;;14.49;64.20;99039.91;4981482;28;20764;-65
2022/09/27 08:00:10;;;;;;;0.30;0.23;;;;;;;14.64;64.11;99039.66;4983945;28;20217;-63
2022/09/27 08:02:37;;;;;;;1.17;0.30;;;;;;;14.74;63.69;99047.22;4986141;28;20214;-64
2022/09/27 08:05:06;;;;;;;2.20;0.30;;;;;;;14.88;63.72;99051.50;4979864;28;20214;-64
2022/09/27 08:07:34;;;;;;;4.37;0.43;;;;;;;14.99;64.09;99051.66;4982548;28;20209;-63
2022/09/27 08:10:02;;;;;;;2.00;0.43;;;;;;;15.18;63.10;99052.63;4983245;28;20226;-64
2022/09/27 08:12:30;;;;;;;1.70;0.40;;;;;;;15.34;62.27;99059.34;4981705;28;20210;-64
2022/09/27 08:15:00;;;;;;;0.87;0.30;;;;;;;15.47;62.43;99059.28;4985507;28;20340;-65
2022/09/27 08:17:28;;;;;;;0.70;0.30;;;;;;;15.56;61.02;99057.22;4987734;28;20218;-66
2022/09/27 08:19:56;;;;;;;1.47;0.50;;;;;;;15.65;60.89;99062.09;4981931;28;20727;-66
2022/09/27 08:22:24;;;;;;;2.03;0.50;;;;;;;15.70;59.86;99059.56;4986486;28;20222;-65
2022/09/27 08:24:52;;;;;;;0.57;0.20;;;;;;;15.74;59.89;99054.63;4978938;28;20627;-65
2022/09/27 08:27:20;;;;;;;1.20;0.30;;;;;;;15.78;59.35;99055.81;4983889;28;20260;-64
2022/09/27 08:29:48;;;;;;;3.57;0.40;;;;;;;15.83;59.48;99058.69;4985884;28;20694;-66
2022/09/27 08:32:18;;;;;;;1.53;0.30;;;;;;;15.87;58.87;99059.88;4980466;28;20711;-65
2022/09/27 08:34:50;;;;;;;1.90;0.20;;;;;;;15.97;57.41;99060.22;4974766;28;20553;-64
2022/09/27 08:37:18;;;;;;;0.50;0.20;;;;;;;15.99;56.93;99052.81;4982296;28;20214;-64
2022/09/27 08:39:46;;;;;;;1.67;0.57;;;;;;;16.10;56.43;99057.44;4978447;28;20653;-65
2022/09/27 08:42:24;;;;;;;1.63;0.30;;;;;;;16.55;55.60;99062.59;4981507;28;20214;-64
2022/09/27 08:44:58;;;;;;;0.67;0.30;;;;;;;16.73;55.26;99057.31;4982145;28;20218;-65
2022/09/27 08:47:37;;;;;;;0.53;0.17;;;;;;;17.07;53.73;99065.78;4981503;28;20284;-65
2022/09/27 08:50:13;;;;;;;0.73;0.33;;;;;;;16.84;53.88;99080.66;4982903;28;20698;-64
2022/09/27 08:52:45;;;;;;;0.37;0.13;;;;;;;16.58;54.74;99080.91;4980760;28;20225;-63
2022/09/27 08:55:22;;;;;;;0.83;0.33;;;;;;;16.44;55.41;99084.75;4982412;28;20645;-64
2022/09/27 08:57:55;;;;;;;0.43;0.20;;;;;;;16.41;55.30;99079.81;4982751;28;20215;-65
2022/09/27 09:00:23;;;;;;;1.83;0.47;;;;;;;16.18;55.72;99083.09;4981176;28;20256;-65
2022/09/27 09:02:52;;;;;;;0.37;0.23;;;;;;;16.08;55.84;99083.59;4981076;28;20246;-64
2022/09/27 09:05:27;;;;;;;0.40;0.20;;;;;;;15.94;56.17;99087.38;4977555;28;20218;-62
2022/09/27 09:08:16;;;;;;;0.90;0.20;;;;;;;15.84;57.26;99083.53;4978314;28;20202;-63
2022/09/27 09:14:15;;;;;;;1.03;0.30;;;;;;;16.87;55.74;99093.63;4979278;28;20230;-63
2022/09/27 09:16:52;;;;;;;1.17;0.33;;;;;;;17.33;52.72;99094.94;4962587;28;20217;-64
2022/09/27 09:19:37;;;;;;;2.90;0.57;;;;;;;17.23;53.01;99092.00;4981786;28;20210;-64
2022/09/27 09:22:24;;;;;;;0.80;0.40;;;;;;;17.01;53.13;99088.09;4985530;28;20656;-64
2022/09/27 09:25:05;;;;;;;1.23;0.40;;;;;;;16.78;53.59;99102.97;4985851;28;20207;-63
2022/09/27 09:27:41;;;;;;;0.87;0.40;;;;;;;16.69;53.85;99090.09;4987251;28;20202;-63
2022/09/27 09:30:20;;;;;;;2.23;0.50;;;;;;;16.59;54.21;99092.44;4987045;28;20238;-63
2022/09/27 09:33:01;;;;;;;0.63;0.30;;;;;;;16.65;54.29;99083.53;4986336;28;20315;-62
2022/09/27 09:35:36;;;;;;;0.30;0.20;;;;;;;16.79;53.66;99074.34;4985233;28;20295;-63
2022/09/27 09:38:11;;;;;;;0.50;0.30;;;;;;;17.01;52.11;99067.50;4985089;28;20218;-62
2022/09/27 09:40:43;;;;;;;1.50;0.50;;;;;;;17.09;53.22;99069.06;4984530;28;20210;-62
2022/09/27 09:43:16;;;;;;;0.87;0.40;;;;;;;17.03;53.16;99072.66;4986839;28;20233;-63
2022/09/27 09:45:48;;;;;;;2.70;1.17;;;;;;;16.95;53.55;99070.28;4982569;28;20427;-63
2022/09/27 09:48:24;;;;;;;2.50;0.70;;;;;;;16.70;53.83;99065.78;4980428;28;20681;-63
2022/09/27 09:50:56;;;;;;;3.03;0.70;;;;;;;16.42;54.39;99073.44;4983043;28;20238;-65
2022/09/27 09:53:34;;;;;;;1.23;0.50;;;;;;;16.19;55.68;99085.53;4986388;28;20659;-64
2022/09/27 09:56:07;;;;;;;1.97;0.67;;;;;;;16.02;56.27;99079.09;4985040;28;20206;-63
2022/09/27 09:58:42;;;;;;;1.57;0.70;;;;;;;15.86;56.59;99082.28;4980917;28;20225;-63
2022/09/27 10:01:17;;;;;;;2.77;0.80;;;;;;;15.73;57.47;99077.03;4981538;28;20638;-62
2022/09/27 10:03:45;;;;;;;4.77;0.90;;;;;;;15.65;57.30;99074.63;4982261;28;20214;-63
2022/09/27 10:06:16;;;;;;;2.00;0.70;;;;;;;15.66;57.55;99081.59;4982964;28;20201;-62
2022/09/27 10:08:44;;;;;;;2.43;0.60;;;;;;;15.63;57.99;99082.84;4982399;28;20260;-64
2022/09/27 10:11:19;;;;;;;0.77;0.50;;;;;;;15.61;58.37;99076.06;4983092;28;20230;-63
2022/09/27 10:13:48;;;;;;;3.17;0.80;;;;;;;15.61;58.67;99082.25;4983119;28;20261;-64
2022/09/27 10:16:18;;;;;;;2.93;0.73;;;;;;;15.62;58.10;99073.19;4982171;28;20284;-65
2022/09/27 10:18:47;;;;;;;1.93;0.70;;;;;;;15.52;58.29;99069.31;4985151;28;20686;-64
2022/09/27 10:21:21;;;;;;;2.17;0.70;;;;;;;15.49;59.10;99069.72;4986231;28;20297;-64
2022/09/27 10:24:03;;;;;;;2.20;0.80;;;;;;;15.40;57.65;99069.97;4985197;28;20210;-64
2022/09/27 10:26:32;;;;;;;3.80;1.00;;;;;;;15.34;58.03;99065.50;4980370;28;20213;-63
2022/09/27 10:29:16;;;;;;;1.83;0.87;;;;;;;15.30;57.64;99063.47;4983551;28;20221;-67
2022/09/27 10:31:46;;;;;;;2.87;0.80;;;;;;;15.24;57.49;99065.13;4980811;28;20229;-63
2022/09/27 10:34:21;;;;;;;3.23;0.67;;;;;;;15.21;57.76;99062.06;4983693;28;20225;-63
2022/09/27 10:37:03;;;;;;;4.50;1.03;;;;;;;15.25;58.44;99061.41;4983290;28;20203;-63
2022/09/27 10:39:31;;;;;;;3.70;1.10;;;;;;;15.33;58.78;99060.34;4982031;28;20217;-63
2022/09/27 10:41:59;;;;;;;2.20;0.90;;;;;;;15.38;58.79;99058.72;4977962;28;20261;-65
2022/09/27 10:44:30;;;;;;;3.50;1.17;;;;;;;15.44;57.64;99054.34;4979087;28;20210;-62
2022/09/27 10:47:06;;;;;;;4.10;0.70;;;;;;;15.44;57.10;99051.69;4977319;28;20264;-62
2022/09/27 10:49:37;;;;;;;2.10;0.70;;;;;;;15.50;57.51;99058.00;4981793;28;20696;-66
2022/09/27 10:52:14;;;;;;;2.20;0.90;;;;;;;15.53;56.82;99049.56;4982210;28;20222;-64
2022/09/27 10:54:42;;;;;;;4.00;1.10;;;;;;;15.55;57.32;99059.06;4980247;28;20889;-62
2022/09/27 10:57:19;;;;;;;2.43;1.03;;;;;;;15.55;58.02;99052.91;4984235;28;20333;-63
2022/09/27 10:59:52;;;;;;;6.00;1.13;;;;;;;15.56;57.90;99055.34;4986142;28;20214;-64
2022/09/27 11:02:22;;;;;;;2.13;1.20;;;;;;;15.52;57.82;99051.44;4987238;28;20202;-64
2022/09/27 11:05:10;;;;;;;2.60;1.00;;;;;;;15.51;58.51;99048.97;4983591;28;20687;-63
2022/09/27 11:07:51;;;;;;;4.17;1.27;;;;;;;15.45;57.33;99042.63;4981312;28;20659;-62
2022/09/27 11:10:27;;;;;;;2.53;0.93;;;;;;;15.48;57.28;99052.09;4976663;28;20224;-64
2022/09/27 11:13:13;;;;;;;4.90;0.90;;;;;;;15.39;56.95;99046.97;4981304;28;20660;-64
2022/09/27 11:15:57;;;;;;;2.20;1.00;;;;;;;15.39;57.54;99041.63;4981037;28;20576;-63
2022/09/27 11:18:32;;;;;;;3.97;0.90;;;;;;;15.42;57.21;99051.88;4985006;28;20210;-63
2022/09/27 11:21:12;;;;;;;2.43;0.90;;;;;;;15.48;57.31;99052.88;4981009;28;20233;-64
2022/09/27 11:23:56;;;;;;;4.03;0.90;;;;;;;15.54;57.56;99045.91;4978960;28;20265;-63
2022/09/27 11:26:37;;;;;;;2.57;0.83;;;;;;;15.61;56.88;99044.00;4979107;28;20338;-66
2022/09/27 11:29:19;;;;;;;0.77;0.50;;;;;;;15.55;53.75;99047.56;4979073;28;20225;-65
2022/09/27 11:32:03;;;;;;;1.87;0.40;;;;;;;15.50;53.06;99045.47;4976781;28;20687;-65
2022/09/27 11:34:43;;;;;;;0.97;0.63;;;;;;;15.42;53.29;99040.38;4979974;28;20607;-65
2022/09/27 11:37:18;;;;;;;1.47;0.83;;;;;;;15.36;54.12;99039.41;4982703;28;20210;-65
2022/09/27 11:40:12;;;;;;;2.17;0.70;;;;;;;15.24;54.18;99030.41;4980497;28;20205;-64
2022/09/27 11:43:12;;;;;;;2.70;0.73;;;;;;;15.15;54.89;99029.00;4981287;28;20252;-65
2022/09/27 11:45:50;;;;;;;1.77;0.53;;;;;;;15.10;55.96;99020.84;4977656;28;20214;-64
2022/09/27 11:48:54;;;;;;;1.17;0.50;;;;;;;15.07;57.81;99022.06;4979024;28;21007;-64
2022/09/27 11:51:30;;;;;;;1.13;0.40;;;;;;;15.20;58.13;99021.19;4981522;28;20291;-64
2022/09/27 11:54:12;;;;;;;2.10;0.43;;;;;;;15.34;57.38;99014.75;4978209;28;20684;-65
2022/09/27 11:56:49;;;;;;;2.37;0.40;;;;;;;15.60;57.10;99018.31;4982466;28;20210;-63
2022/09/27 11:59:37;;;;;;;1.57;0.50;;;;;;;15.69;56.78;99015.19;4977195;28;20348;-64
2022/09/27 12:02:21;;;;;;;2.37;0.90;;;;;;;15.80;57.02;99005.66;4971785;28;20214;-63